Time;durP1;ratioP1;P1;durP2;ratioP2;P2;SDS_P1;SDS_P2;PMS_P1;PMS_P2;Temp;Humidity;BMP_temperature;BMP_pressure;BME280_temperature;BME280_humidity;BME280_pressure;Samples;Min_cycle;Max_cycle;Signal;HPM_P1;HPM_P2
2022/05/25 00:01:04;;;;;;;24.23;13.37;;;;;;;10.22;90.29;101103.75;5036265;28;20103;-89
2022/05/25 00:03:32;;;;;;;24.83;13.83;;;;;;;10.22;90.14;101100.22;5032763;28;20030;-90
2022/05/25 00:05:58;;;;;;;22.70;13.00;;;;;;;10.19;90.05;101100.66;5034509;28;20112;-90
2022/05/25 00:08:24;;;;;;;22.53;13.23;;;;;;;10.23;90.04;101110.84;5001881;28;20029;-90
2022/05/25 00:10:50;;;;;;;24.43;13.50;;;;;;;10.24;90.11;101112.53;5031473;28;20535;-89
2022/05/25 00:13:16;;;;;;;25.67;13.33;;;;;;;10.22;90.14;101114.59;5013470;28;20022;-90
2022/05/25 00:15:41;;;;;;;21.43;11.43;;;;;;;10.26;90.21;101120.44;5030229;28;20053;-90
2022/05/25 00:18:07;;;;;;;18.67;11.03;;;;;;;10.30;90.16;101114.41;5012918;28;20083;-89
2022/05/25 00:20:33;;;;;;;17.03;10.10;;;;;;;10.28;90.38;101118.34;5013381;28;20060;-86
2022/05/25 00:22:59;;;;;;;15.33;9.40;;;;;;;10.30;90.35;101124.41;5011416;28;20065;-87
2022/05/25 00:25:32;;;;;;;20.83;10.93;;;;;;;10.23;90.27;101110.84;5013924;28;20071;-87
2022/05/25 00:28:03;;;;;;;25.57;14.00;;;;;;;10.23;90.58;101113.56;5028432;28;20033;-87
2022/05/25 00:30:29;;;;;;;23.43;12.30;;;;;;;10.19;90.85;101109.59;5012093;28;20060;-87
2022/05/25 00:32:56;;;;;;;21.23;12.13;;;;;;;10.23;91.08;101118.97;5029787;28;20091;-87
2022/05/25 00:35:23;;;;;;;21.30;11.70;;;;;;;10.23;91.30;101131.69;5031742;28;20083;-87
2022/05/25 00:37:48;;;;;;;24.33;12.57;;;;;;;10.24;91.50;101126.06;5027053;28;20049;-87
2022/05/25 00:40:22;;;;;;;27.47;15.03;;;;;;;10.23;91.47;101132.53;5027849;28;20068;-87
2022/05/25 00:42:47;;;;;;;26.43;14.83;;;;;;;10.23;91.44;101127.09;5041348;28;20878;-87
2022/05/25 00:45:14;;;;;;;25.63;14.00;;;;;;;10.22;91.00;101121.91;5028664;28;20083;-87
2022/05/25 00:47:42;;;;;;;22.87;12.90;;;;;;;10.21;90.95;101125.63;5011538;28;20044;-86
2022/05/25 00:50:12;;;;;;;23.23;12.60;;;;;;;10.08;91.00;101108.31;5036430;28;20032;-87
2022/05/25 00:52:40;;;;;;;18.70;11.80;;;;;;;10.17;91.24;101121.66;5027222;28;20018;-87
2022/05/25 00:55:08;;;;;;;17.73;10.67;;;;;;;10.15;91.31;101121.88;5030872;28;20032;-87
2022/05/25 00:57:38;;;;;;;18.67;11.70;;;;;;;10.21;91.43;101131.88;5027655;28;20028;-87
2022/05/25 01:00:21;;;;;;;17.47;10.50;;;;;;;10.14;91.20;101128.31;5026643;28;20055;-86
2022/05/25 01:02:50;;;;;;;17.07;10.33;;;;;;;10.13;90.95;101138.31;5030017;28;20025;-86
2022/05/25 01:05:23;;;;;;;19.93;11.87;;;;;;;10.14;91.42;101136.44;5031349;28;20033;-84
2022/05/25 01:08:15;;;;;;;15.57;11.03;;;;;;;10.13;91.56;101134.75;5034982;28;20025;-84
2022/05/25 01:10:59;;;;;;;19.17;12.03;;;;;;;10.08;91.82;101146.19;5025942;28;20422;-85
2022/05/25 01:13:47;;;;;;;26.92;16.15;;;;;;;10.06;92.75;101142.88;5026799;28;20022;-85
2022/05/25 01:16:34;;;;;;;25.43;15.63;;;;;;;10.06;92.56;101139.31;5026669;28;20040;-85
2022/05/25 01:19:24;;;;;;;24.63;15.50;;;;;;;10.03;92.78;101153.25;5026753;28;20037;-84
2022/05/25 01:22:01;;;;;;;29.57;17.13;;;;;;;10.03;93.13;101147.84;5032021;28;20109;-85
2022/05/25 01:24:38;;;;;;;29.50;17.27;;;;;;;9.97;93.49;101139.47;5025444;28;20087;-85
2022/05/25 01:27:28;;;;;;;28.53;17.13;;;;;;;9.97;93.56;101144.91;5032014;28;20500;-85
2022/05/25 01:30:17;;;;;;;30.27;17.50;;;;;;;9.95;93.92;101152.41;5030638;28;20026;-85
2022/05/25 01:33:05;;;;;;;27.40;17.97;;;;;;;9.94;94.25;101149.88;5030112;28;20022;-85
2022/05/25 01:36:00;;;;;;;29.67;17.83;;;;;;;9.94;94.07;101150.72;5032624;28;20026;-86
2022/05/25 01:38:40;;;;;;;;;;;;;;;10.00;92.50;101151.78;5030051;28;20545;-86
2022/05/25 01:41:13;;;;;;;25.40;16.90;;;;;;;9.89;94.25;101147.78;5031910;28;20360;-86
2022/05/25 01:43:44;;;;;;;26.10;15.47;;;;;;;9.89;93.73;101157.78;5031002;28;20049;-86
2022/05/25 01:46:23;;;;;;;20.57;13.93;;;;;;;9.89;93.66;101155.91;5040341;28;20492;-85
2022/05/25 01:48:50;;;;;;;19.53;14.07;;;;;;;9.86;93.67;101158.16;5032916;28;20033;-86
2022/05/25 01:51:40;;;;;;;20.10;13.23;;;;;;;9.84;94.00;101157.53;5031830;28;20091;-85
2022/05/25 01:54:08;;;;;;;18.13;12.97;;;;;;;9.79;93.67;101161.66;5034559;28;20064;-85
2022/05/25 01:56:37;;;;;;;18.87;13.77;;;;;;;9.77;93.71;101158.31;5037352;28;20408;-85
2022/05/25 01:59:08;;;;;;;18.53;13.33;;;;;;;9.76;93.78;101161.22;5035924;28;20046;-86
2022/05/25 02:01:33;;;;;;;17.77;13.13;;;;;;;9.74;93.61;101152.47;5036445;28;20052;-85
2022/05/25 02:07:40;;;;;;;17.17;12.40;;;;;;;9.71;94.02;101160.97;5033968;28;20075;-85
2022/05/25 02:10:23;;;;;;;17.17;12.63;;;;;;;9.60;94.22;101152.41;4995817;28;20037;-86
2022/05/25 02:13:03;;;;;;;16.97;12.33;;;;;;;9.62;94.14;101161.13;5015668;28;20184;-86
2022/05/25 02:16:02;;;;;;;18.37;13.07;;;;;;;9.60;93.88;101160.50;5025197;28;20033;-86
2022/05/25 02:18:41;;;;;;;17.63;12.53;;;;;;;9.60;93.95;101157.81;5030321;28;20094;-86
2022/05/25 02:21:34;;;;;;;17.40;12.83;;;;;;;9.57;93.89;101160.91;5028774;28;20382;-86
2022/05/25 02:24:05;;;;;;;18.53;13.27;;;;;;;9.56;94.08;101161.09;5033965;28;20025;-86
2022/05/25 02:26:40;;;;;;;18.33;13.43;;;;;;;9.54;94.67;101155.88;5032242;28;20025;-86
2022/05/25 02:29:20;;;;;;;18.80;13.40;;;;;;;9.54;94.39;101155.06;5033613;28;20448;-85
2022/05/25 02:32:10;;;;;;;17.63;13.43;;;;;;;9.52;94.24;101154.41;5032955;28;20127;-86
2022/05/25 02:34:39;;;;;;;17.43;13.00;;;;;;;9.47;94.09;101155.00;5031201;28;20079;-86
2022/05/25 02:37:06;;;;;;;16.97;12.73;;;;;;;9.49;93.94;101162.91;5030090;28;20029;-86
2022/05/25 02:39:31;;;;;;;20.53;13.73;;;;;;;9.48;94.21;101178.31;5014712;28;20040;-86
2022/05/25 02:41:57;;;;;;;20.77;13.73;;;;;;;9.45;94.54;101175.97;5034236;28;20034;-86
2022/05/25 02:44:23;;;;;;;20.20;13.80;;;;;;;9.45;94.34;101175.97;5031379;28;20025;-86
2022/05/25 02:46:49;;;;;;;18.97;13.90;;;;;;;9.40;94.38;101165.75;5013580;28;20025;-86
2022/05/25 02:49:17;;;;;;;17.73;13.47;;;;;;;9.40;94.43;101181.16;5031972;28;20091;-86
2022/05/25 02:51:42;;;;;;;22.03;13.83;;;;;;;9.42;94.21;101184.50;5029167;28;20029;-86
2022/05/25 02:54:09;;;;;;;19.17;13.83;;;;;;;9.39;94.26;101180.31;4997523;28;20123;-86
2022/05/25 02:56:35;;;;;;;19.57;13.60;;;;;;;9.33;94.52;101180.25;5031165;28;20029;-86
2022/05/25 02:59:01;;;;;;;19.47;13.57;;;;;;;9.34;94.53;101187.34;5016881;28;20029;-86
2022/05/25 03:01:26;;;;;;;19.80;13.40;;;;;;;9.36;94.28;101188.00;5029906;28;20505;-86
2022/05/25 03:03:52;;;;;;;17.93;12.90;;;;;;;9.26;94.21;101180.19;5016286;28;20116;-86
2022/05/25 03:06:18;;;;;;;17.70;12.27;;;;;;;9.20;94.06;101170.19;5029019;28;20021;-86
2022/05/25 03:08:44;;;;;;;16.67;12.00;;;;;;;9.19;94.09;101174.72;5030589;28;20045;-86
2022/05/25 03:11:09;;;;;;;18.83;12.20;;;;;;;9.27;94.02;101200.81;5030339;28;20401;-85
2022/05/25 03:13:35;;;;;;;16.67;11.73;;;;;;;9.26;93.83;101205.38;5034439;28;20025;-86
2022/05/25 03:16:03;;;;;;;19.10;11.73;;;;;;;9.10;93.99;101186.72;5016937;28;20033;-86
2022/05/25 03:18:29;;;;;;;16.70;11.90;;;;;;;9.20;94.20;101198.03;5029340;28;20078;-86
2022/05/25 03:20:54;;;;;;;15.67;10.80;;;;;;;9.21;93.82;101207.84;5031286;28;20119;-86
2022/05/25 03:23:19;;;;;;;16.97;10.87;;;;;;;9.18;93.78;101205.53;5014226;28;20036;-86
2022/05/25 03:25:46;;;;;;;16.77;10.73;;;;;;;9.18;93.73;101210.06;5013201;28;20136;-86
2022/05/25 03:28:12;;;;;;;13.40;10.03;;;;;;;9.13;93.81;101192.56;5031970;28;20025;-86
2022/05/25 03:30:38;;;;;;;14.03;9.33;;;;;;;9.16;93.62;101199.47;5012160;28;20029;-86
2022/05/25 03:33:03;;;;;;;12.50;9.23;;;;;;;9.16;93.48;101207.56;5031965;28;21792;-86
2022/05/25 03:35:29;;;;;;;14.47;9.47;;;;;;;9.13;93.35;101203.38;5029092;28;20096;-86
2022/05/25 03:37:54;;;;;;;15.13;9.17;;;;;;;9.12;93.53;101200.88;5012948;28;20030;-86
2022/05/25 03:40:20;;;;;;;15.77;8.90;;;;;;;9.15;93.46;101215.88;5035364;28;20124;-86
2022/05/25 03:42:47;;;;;;;14.47;8.33;;;;;;;9.06;93.42;101205.19;5030551;28;21774;-87
2022/05/25 03:45:14;;;;;;;14.57;8.60;;;;;;;9.10;93.53;101211.06;5014820;28;20037;-87
2022/05/25 03:47:40;;;;;;;14.77;8.60;;;;;;;9.12;93.49;101222.50;5030495;28;20029;-87
2022/05/25 03:50:06;;;;;;;12.20;8.70;;;;;;;9.11;93.54;101218.13;5033295;28;20025;-87
2022/05/25 03:52:32;;;;;;;12.60;8.20;;;;;;;9.10;93.48;101227.28;5014013;28;20420;-87
2022/05/25 03:54:57;;;;;;;14.23;8.53;;;;;;;9.11;93.43;101215.41;5031959;28;20091;-87
2022/05/25 03:57:23;;;;;;;14.70;8.90;;;;;;;9.08;93.73;101216.66;5011474;28;20025;-87
2022/05/25 03:59:48;;;;;;;13.37;8.00;;;;;;;9.13;93.60;101226.88;5016218;28;20049;-87
2022/05/25 04:02:14;;;;;;;12.60;8.13;;;;;;;9.11;93.48;101228.94;5007364;28;20021;-87
2022/05/25 04:04:40;;;;;;;12.90;8.20;;;;;;;9.07;93.41;101222.25;5024860;28;20035;-87
2022/05/25 04:07:05;;;;;;;14.70;7.90;;;;;;;9.13;93.30;101232.28;5027720;28;20030;-86
2022/05/25 04:09:31;;;;;;;11.80;7.90;;;;;;;9.13;93.46;101232.28;5030754;28;20029;-87
2022/05/25 04:11:57;;;;;;;15.03;8.10;;;;;;;9.04;93.46;101218.06;5029011;28;20246;-87
2022/05/25 04:14:22;;;;;;;11.77;8.10;;;;;;;9.13;94.06;101238.53;5012051;28;20068;-87
2022/05/25 04:16:48;;;;;;;10.90;7.40;;;;;;;9.18;93.37;101237.97;5028760;28;20029;-87
2022/05/25 04:19:14;;;;;;;11.23;7.87;;;;;;;9.18;93.81;101245.22;5027949;28;20029;-87
2022/05/25 04:21:40;;;;;;;13.60;8.07;;;;;;;9.16;93.55;101229.19;5013080;28;20058;-87
2022/05/25 04:24:06;;;;;;;15.60;8.27;;;;;;;9.15;93.80;101232.91;5011705;28;20517;-87
2022/05/25 04:26:32;;;;;;;13.70;8.40;;;;;;;9.24;93.46;101239.88;5027834;28;20017;-87
2022/05/25 04:29:00;;;;;;;12.80;7.80;;;;;;;9.25;93.48;101236.16;5017962;28;20033;-87
2022/05/25 04:31:26;;;;;;;11.97;8.07;;;;;;;9.31;93.19;101241.81;4997400;28;20079;-87
2022/05/25 04:33:52;;;;;;;15.03;8.10;;;;;;;9.27;93.57;101246.78;5029369;28;20048;-87
2022/05/25 04:36:17;;;;;;;14.30;7.60;;;;;;;9.24;93.49;101245.28;5046141;28;20029;-87
2022/05/25 04:38:42;;;;;;;15.60;9.07;;;;;;;9.26;93.61;101250.50;5027554;28;20048;-87
2022/05/25 04:41:08;;;;;;;12.33;8.10;;;;;;;9.31;93.41;101250.75;5013821;28;20525;-87
2022/05/25 04:43:33;;;;;;;15.70;8.23;;;;;;;9.31;93.38;101239.13;5028212;28;20971;-87
2022/05/25 04:46:01;;;;;;;12.53;8.17;;;;;;;9.34;93.45;101255.78;5030222;28;20037;-87
2022/05/25 04:48:27;;;;;;;14.57;7.90;;;;;;;9.34;93.59;101247.66;5011116;28;20453;-87
2022/05/25 04:50:54;;;;;;;14.70;8.30;;;;;;;9.38;93.48;101258.94;5027295;28;20422;-87
2022/05/25 04:53:21;;;;;;;13.63;9.40;;;;;;;9.39;93.70;101266.03;5027564;28;20024;-87
2022/05/25 04:58:39;;;;;;;16.35;8.55;;;;;;;9.52;92.89;101263.44;5030607;28;20390;-87
2022/05/25 05:01:07;;;;;;;13.47;8.73;;;;;;;9.52;93.13;101265.31;5026872;28;20032;-87
2022/05/25 05:03:34;;;;;;;17.17;9.40;;;;;;;9.50;93.29;101273.63;5026523;28;20030;-87
2022/05/25 05:06:00;;;;;;;13.50;9.23;;;;;;;9.53;93.43;101267.81;5011133;28;20116;-87
2022/05/25 05:08:26;;;;;;;15.20;9.13;;;;;;;9.62;93.53;101277.47;5013607;28;20171;-86
2022/05/25 05:10:53;;;;;;;16.47;9.10;;;;;;;9.66;93.54;101279.81;5026155;28;20037;-87
2022/05/25 05:13:19;;;;;;;14.57;8.50;;;;;;;9.68;93.12;101275.84;5012287;28;20024;-87
2022/05/25 05:15:48;;;;;;;15.77;8.70;;;;;;;9.73;92.83;101277.97;5033116;28;20109;-87
2022/05/25 05:18:14;;;;;;;14.37;8.60;;;;;;;9.79;92.74;101282.59;5027951;28;20029;-87
2022/05/25 05:20:40;;;;;;;15.33;8.87;;;;;;;9.79;92.77;101269.06;5027842;28;20033;-87
2022/05/25 05:23:05;;;;;;;16.00;9.20;;;;;;;9.88;92.64;101276.00;5029426;28;20032;-87
2022/05/25 05:25:31;;;;;;;14.33;8.63;;;;;;;9.93;92.58;101268.13;5027003;28;20099;-87
2022/05/25 05:28:09;;;;;;;14.90;8.60;;;;;;;9.97;92.39;101272.13;5011185;28;21765;-87
2022/05/25 05:30:43;;;;;;;16.67;8.40;;;;;;;10.03;92.43;101273.19;5028091;28;20032;-87
2022/05/25 05:33:08;;;;;;;16.08;8.18;;;;;;;10.07;91.74;101257.41;5027960;28;20508;-87
2022/05/25 05:35:34;;;;;;;16.70;8.37;;;;;;;10.12;91.38;101261.19;5024645;28;20099;-87
2022/05/25 05:38:00;;;;;;;13.87;8.40;;;;;;;10.18;92.00;101256.03;5008441;28;20025;-87
2022/05/25 05:40:27;;;;;;;13.57;8.87;;;;;;;10.26;91.89;101262.09;5010361;28;20087;-86
2022/05/25 05:42:53;;;;;;;12.87;8.20;;;;;;;10.31;90.69;101253.38;4990892;28;20056;-86
2022/05/25 05:45:23;;;;;;;14.90;8.30;;;;;;;10.36;90.85;101245.50;5020787;28;20037;-87
2022/05/25 05:48:01;;;;;;;16.57;8.33;;;;;;;10.41;90.64;101248.47;5021890;28;20623;-87
2022/05/25 05:50:29;;;;;;;12.90;8.50;;;;;;;10.47;90.30;101258.50;5032823;28;20029;-87
2022/05/25 05:52:55;;;;;;;15.40;8.60;;;;;;;10.46;90.51;101234.31;5020027;28;20033;-87
2022/05/25 05:55:21;;;;;;;15.03;8.20;;;;;;;10.68;90.08;101250.47;5020133;28;20037;-87
2022/05/25 05:57:47;;;;;;;14.83;8.30;;;;;;;10.66;89.12;101249.81;5023122;28;20035;-87
2022/05/25 06:00:15;;;;;;;18.10;9.07;;;;;;;10.79;89.87;101260.72;5021850;28;20592;-87
2022/05/25 06:02:41;;;;;;;14.50;8.70;;;;;;;10.77;89.05;101260.06;5019456;28;20034;-87
2022/05/25 06:05:07;;;;;;;12.90;8.30;;;;;;;10.89;89.73;101258.47;5022714;28;20032;-87
2022/05/25 06:07:32;;;;;;;14.90;8.30;;;;;;;10.97;89.15;101269.13;5028430;28;20041;-88
2022/05/25 06:09:58;;;;;;;15.03;8.50;;;;;;;11.03;88.24;101267.47;4993149;28;20952;-88
2022/05/25 06:12:24;;;;;;;17.93;8.57;;;;;;;11.11;87.95;101269.13;4995528;28;20033;-87
2022/05/25 06:14:49;;;;;;;16.23;8.97;;;;;;;11.21;88.06;101275.00;5027438;28;20071;-87
2022/05/25 06:19:59;;;;;;;16.30;9.27;;;;;;;11.48;88.68;101275.88;5031737;28;20045;-87
2022/05/25 06:22:24;;;;;;;15.27;9.10;;;;;;;11.49;87.64;101277.56;5030441;28;20025;-88
2022/05/25 06:24:52;;;;;;;17.80;9.77;;;;;;;11.58;87.53;101286.31;5014173;28;20083;-88
2022/05/25 06:27:19;;;;;;;17.47;9.53;;;;;;;11.64;87.41;101281.94;5029499;28;20092;-88
2022/05/25 06:29:47;;;;;;;15.67;9.10;;;;;;;11.72;86.77;101297.19;5030842;28;20534;-88
2022/05/25 06:32:14;;;;;;;17.03;9.20;;;;;;;11.76;86.11;101293.03;5030262;28;20504;-87
2022/05/25 06:34:40;;;;;;;17.60;9.77;;;;;;;11.71;85.31;101290.09;5031075;28;20095;-88
2022/05/25 06:37:07;;;;;;;16.30;10.10;;;;;;;11.78;86.00;101288.22;5031948;28;20123;-87
2022/05/25 06:39:37;;;;;;;15.40;9.20;;;;;;;11.80;85.47;101297.00;5030222;28;20032;-87
2022/05/25 06:42:04;;;;;;;18.53;10.40;;;;;;;11.76;84.79;101299.31;5031746;28;21914;-85
2022/05/25 06:44:30;;;;;;;16.80;10.70;;;;;;;11.83;85.51;101300.13;5030793;28;20056;-89
2022/05/25 06:46:55;;;;;;;18.00;11.30;;;;;;;11.95;85.25;101303.09;5013417;28;20500;-88
2022/05/25 06:49:21;;;;;;;17.93;11.37;;;;;;;12.06;85.04;101296.19;4996275;28;20025;-88
2022/05/25 06:51:46;;;;;;;16.83;11.60;;;;;;;12.09;84.87;101297.63;5009346;28;20029;-88
2022/05/25 06:54:13;;;;;;;17.60;11.87;;;;;;;12.21;84.88;101303.25;4998570;28;20072;-87
2022/05/25 06:56:39;;;;;;;16.77;11.87;;;;;;;12.41;84.97;101312.19;5013058;28;20049;-85
2022/05/25 06:59:05;;;;;;;17.93;13.50;;;;;;;12.41;83.50;101314.09;5011808;28;20065;-88
2022/05/25 07:01:30;;;;;;;20.27;14.53;;;;;;;12.54;84.85;101305.91;5018951;28;20053;-87
2022/05/25 07:03:56;;;;;;;21.43;14.13;;;;;;;12.63;83.81;101318.22;5011950;28;20442;-87
2022/05/25 07:06:23;;;;;;;20.10;14.97;;;;;;;12.59;82.96;101325.13;5029436;28;21075;-87
2022/05/25 07:08:48;;;;;;;20.53;14.53;;;;;;;12.62;83.03;101319.25;5027709;28;20037;-87
2022/05/25 07:11:14;;;;;;;22.33;15.07;;;;;;;12.63;82.88;101329.09;5028945;28;20390;-88
2022/05/25 07:13:41;;;;;;;19.53;15.40;;;;;;;12.81;84.65;101331.13;4994326;28;20595;-88
2022/05/25 07:16:10;;;;;;;22.87;17.70;;;;;;;12.71;81.72;101332.63;5014105;28;20025;-87
2022/05/25 07:18:36;;;;;;;21.83;16.73;;;;;;;12.69;81.58;101331.97;5013283;28;20595;-87
2022/05/25 07:21:08;;;;;;;24.17;18.47;;;;;;;12.81;82.30;101333.00;5009802;28;20049;-87
2022/05/25 07:23:35;;;;;;;24.73;19.47;;;;;;;13.02;82.48;101350.91;5016211;28;20044;-87
2022/05/25 07:26:00;;;;;;;23.30;18.47;;;;;;;13.00;80.88;101342.97;5013015;28;20041;-87
2022/05/25 07:28:26;;;;;;;23.63;19.53;;;;;;;13.05;82.05;101350.47;5012848;28;20592;-87
2022/05/25 07:30:58;;;;;;;23.03;18.30;;;;;;;12.93;80.90;101355.78;5012570;28;20080;-88
2022/05/25 07:33:23;;;;;;;22.27;18.30;;;;;;;12.84;81.94;101344.28;5013058;28;20068;-87
2022/05/25 07:35:49;;;;;;;23.77;17.50;;;;;;;12.87;81.51;101348.47;4994026;28;20172;-88
2022/05/25 07:38:14;;;;;;;21.17;16.00;;;;;;;12.86;81.63;101344.06;4995241;28;20103;-87
2022/05/25 07:40:42;;;;;;;20.47;14.93;;;;;;;12.88;81.47;101344.69;5009562;28;20154;-87
2022/05/25 07:43:15;;;;;;;21.77;12.83;;;;;;;12.91;81.91;101349.69;5012580;28;20034;-87
2022/05/25 07:45:41;;;;;;;19.90;12.00;;;;;;;12.89;81.27;101351.81;5028060;28;20111;-87
2022/05/25 07:48:07;;;;;;;15.90;9.77;;;;;;;12.98;81.04;101353.22;4994457;28;20037;-88
2022/05/25 07:50:33;;;;;;;17.57;10.93;;;;;;;13.23;81.95;101351.66;5012459;28;20699;-87
2022/05/25 07:53:01;;;;;;;13.33;9.63;;;;;;;13.44;80.35;101353.25;5012888;28;20036;-88
2022/05/25 07:55:27;;;;;;;15.00;9.03;;;;;;;13.51;78.59;101354.88;4993938;28;20192;-88
2022/05/25 07:57:53;;;;;;;15.17;9.17;;;;;;;13.61;78.62;101357.13;4976680;28;20026;-87
2022/05/25 08:00:24;;;;;;;14.27;9.63;;;;;;;13.60;78.40;101360.03;4999342;28;20080;-87
2022/05/25 08:05:48;;;;;;;15.77;9.60;;;;;;;13.84;78.04;101362.00;5021958;28;20036;-87
2022/05/25 08:08:20;;;;;;;15.90;10.07;;;;;;;14.18;79.78;101367.16;5021075;28;20028;-87
2022/05/25 08:10:53;;;;;;;14.90;9.07;;;;;;;14.18;76.86;101368.00;5021441;28;20477;-87
2022/05/25 08:13:21;;;;;;;11.07;9.50;;;;;;;14.29;77.02;101368.31;5022063;28;20040;-88
2022/05/25 08:15:47;;;;;;;13.77;9.57;;;;;;;14.52;76.79;101375.84;5018697;28;20482;-87
2022/05/25 08:18:14;;;;;;;12.90;9.33;;;;;;;14.54;73.88;101368.28;5020892;28;20087;-87
2022/05/25 08:20:40;;;;;;;15.03;9.17;;;;;;;14.87;75.56;101378.03;5023728;28;20390;-87
2022/05/25 08:23:08;;;;;;;13.57;8.40;;;;;;;14.78;73.17;101368.47;5025783;28;20068;-84
2022/05/25 08:25:34;;;;;;;14.40;8.50;;;;;;;14.97;73.32;101367.44;5023055;28;20040;-85
2022/05/25 08:27:59;;;;;;;12.77;8.00;;;;;;;15.15;72.55;101379.38;5026106;28;20740;-85
2022/05/25 08:30:25;;;;;;;10.57;7.43;;;;;;;15.10;70.52;101373.78;5009486;28;20041;-86
2022/05/25 08:32:51;;;;;;;12.73;7.70;;;;;;;15.39;71.94;101374.03;5006665;28;20079;-86
2022/05/25 08:35:17;;;;;;;11.03;7.27;;;;;;;15.42;69.36;101363.50;5019646;28;20029;-86
2022/05/25 08:37:43;;;;;;;11.77;7.20;;;;;;;15.66;69.67;101348.00;5017603;28;20087;-87
2022/05/25 08:40:11;;;;;;;9.07;6.97;;;;;;;15.79;68.94;101363.38;5020542;28;20033;-86
2022/05/25 08:42:56;;;;;;;9.10;6.70;;;;;;;15.84;70.16;101346.28;5022177;28;20128;-86
2022/05/25 08:45:22;;;;;;;;;;;;;;;16.44;70.05;101358.94;5038020;28;20037;-86
2022/05/25 08:47:54;;;;;;;8.33;5.97;;;;;;;16.78;70.43;101364.63;5024562;28;19917;-86
2022/05/25 08:50:19;;;;;;;7.80;5.20;;;;;;;16.63;64.97;101356.91;5041610;28;20044;-87
2022/05/25 08:52:46;;;;;;;10.37;4.83;;;;;;;17.16;66.85;101352.28;5023818;28;20037;-87
2022/05/25 08:55:20;;;;;;;8.40;4.40;;;;;;;17.22;63.20;101347.72;5026069;28;21001;-87
2022/05/25 08:57:51;;;;;;;;;;;;;;;17.75;61.31;101345.69;5025260;28;20064;-85
2022/05/25 09:00:19;;;;;;;8.73;4.67;;;;;;;17.29;60.94;101353.88;5040676;28;19921;-85
2022/05/25 09:02:57;;;;;;;6.77;3.67;;;;;;;17.61;61.49;101353.41;5026528;28;20034;-86
2022/05/25 09:05:48;;;;;;;7.57;4.07;;;;;;;18.02;62.28;101359.59;5025254;28;20044;-86
2022/05/25 09:08:31;;;;;;;6.68;3.90;;;;;;;17.99;60.41;101362.84;5023055;28;20124;-87
2022/05/25 09:11:30;;;;;;;9.70;3.80;;;;;;;18.10;60.56;101354.75;5025792;28;20452;-86
2022/05/25 09:14:07;;;;;;;10.18;3.67;;;;;;;18.22;59.51;101344.53;5024912;28;20502;-86
2022/05/25 09:16:36;;;;;;;6.28;3.22;;;;;;;18.30;57.86;101357.00;5026691;28;20056;-86
2022/05/25 09:19:07;;;;;;;8.82;3.42;;;;;;;18.32;56.42;101358.41;5025410;28;20034;-87
2022/05/25 09:21:43;;;;;;;5.05;2.75;;;;;;;17.86;57.05;101360.38;5025387;28;20112;-86
2022/05/25 09:24:14;;;;;;;8.52;3.22;;;;;;;18.00;56.36;101361.75;5025287;28;20033;-86
2022/05/25 09:26:40;;;;;;;5.00;2.97;;;;;;;18.34;56.56;101347.19;5024915;28;20026;-86
2022/05/25 09:29:07;;;;;;;5.30;3.00;;;;;;;18.38;57.38;101360.13;5025304;28;20132;-85
2022/05/25 09:31:43;;;;;;;3.03;2.33;;;;;;;18.65;58.51;101359.41;5022220;28;20449;-86
2022/05/25 09:34:13;;;;;;;7.93;2.70;;;;;;;18.44;54.22;101374.78;5024967;28;20037;-86
2022/05/25 09:36:42;;;;;;;8.10;2.28;;;;;;;18.25;53.48;101367.88;5027055;28;20065;-86
2022/05/25 09:39:28;;;;;;;5.05;1.92;;;;;;;18.09;52.22;101377.78;5026483;28;20049;-86
2022/05/25 09:41:57;;;;;;;7.10;2.00;;;;;;;17.56;52.65;101367.00;5041998;28;20084;-86
2022/05/25 09:44:23;;;;;;;4.30;2.17;;;;;;;17.07;53.80;101366.56;5026954;28;20087;-86
2022/05/25 09:46:54;;;;;;;4.15;2.10;;;;;;;17.11;55.33;101385.03;5025710;28;20529;-86
2022/05/25 09:49:28;;;;;;;3.33;1.83;;;;;;;17.41;56.18;101383.13;5028032;28;20030;-86
2022/05/25 09:51:54;;;;;;;;;;;;;;;18.05;55.36;101388.44;5029694;28;20025;-87
2022/05/25 09:54:38;;;;;;;3.77;1.97;;;;;;;17.86;53.08;101390.53;5031254;28;20425;-86
2022/05/25 09:57:17;;;;;;;5.00;1.77;;;;;;;17.69;53.64;101395.97;5026714;28;20033;-86
2022/05/25 10:00:00;;;;;;;5.90;1.93;;;;;;;17.68;54.34;101386.13;5029955;28;20067;-86
2022/05/25 10:02:31;;;;;;;3.90;2.27;;;;;;;17.68;53.58;101399.81;5035969;28;20013;-86
2022/05/25 10:05:12;;;;;;;3.63;2.20;;;;;;;17.70;53.44;101397.66;5030376;28;20036;-86
2022/05/25 10:07:49;;;;;;;6.88;2.67;;;;;;;17.62;53.02;101398.88;5033040;28;20025;-86
2022/05/25 10:10:15;;;;;;;6.15;3.00;;;;;;;17.42;53.36;101391.13;5033751;28;20098;-86
2022/05/25 10:12:42;;;;;;;3.85;2.90;;;;;;;17.57;54.02;101398.81;5014009;28;20059;-86
2022/05/25 10:15:28;;;;;;;4.53;3.10;;;;;;;17.86;52.86;101402.31;5031747;28;20037;-86
2022/05/25 10:17:54;;;;;;;4.57;2.80;;;;;;;18.07;51.50;101377.22;5035254;28;20027;-87
2022/05/25 10:20:53;;;;;;;6.03;3.15;;;;;;;18.10;51.49;101371.22;5015007;28;20384;-86
2022/05/25 10:23:22;;;;;;;4.93;2.80;;;;;;;18.28;51.44;101379.19;5032349;28;20452;-85
2022/05/25 10:25:52;;;;;;;5.70;2.90;;;;;;;18.31;50.20;101384.16;5032384;28;20021;-86
2022/05/25 10:28:25;;;;;;;6.23;3.20;;;;;;;18.51;49.40;101385.59;5030828;28;20498;-86
2022/05/25 10:37:15;;;;;;;2.58;1.35;;;;;;;19.05;48.48;101374.81;5029657;28;20040;-86
2022/05/25 10:39:56;;;;;;;5.97;1.90;;;;;;;19.09;46.52;101371.53;5030971;28;20116;-86
2022/05/25 10:42:26;;;;;;;4.85;1.38;;;;;;;19.26;48.63;101380.53;5030926;28;20046;-86
2022/05/25 10:45:10;;;;;;;3.10;1.70;;;;;;;19.54;47.59;101364.88;5027274;28;20034;-86
2022/05/25 10:47:57;;;;;;;;;;;;;;;19.76;44.85;101364.00;5028317;28;20504;-86
2022/05/25 10:50:32;;;;;;;4.07;1.10;;;;;;;19.60;43.96;101379.50;5027816;28;20029;-87
2022/05/25 10:53:24;;;;;;;5.30;1.20;;;;;;;19.61;42.51;101371.03;5029927;28;20462;-86
2022/05/25 10:56:18;;;;;;;2.58;1.10;;;;;;;19.56;45.10;101365.47;5031838;28;20053;-87
2022/05/25 10:58:43;;;;;;;2.88;1.10;;;;;;;19.67;43.33;101372.72;5029631;28;20033;-87
2022/05/25 11:01:23;;;;;;;3.20;1.17;;;;;;;19.81;44.49;101356.63;5031214;28;20029;-86
2022/05/25 11:03:56;;;;;;;3.75;1.30;;;;;;;19.90;44.07;101346.81;5031020;28;20029;-86
2022/05/25 11:06:37;;;;;;;3.67;1.30;;;;;;;19.71;44.18;101370.28;5030765;28;20084;-86
2022/05/25 11:09:30;;;;;;;3.15;1.23;;;;;;;19.71;46.66;101373.84;5028012;28;20049;-86
2022/05/25 11:12:09;;;;;;;2.22;1.13;;;;;;;19.60;43.67;101363.84;5032054;28;20510;-85
2022/05/25 11:14:53;;;;;;;3.67;1.23;;;;;;;19.64;43.16;101364.19;5030950;28;20090;-86
2022/05/25 11:17:36;;;;;;;1.65;0.88;;;;;;;19.80;44.14;101373.38;5027654;28;20029;-86
2022/05/25 11:20:13;;;;;;;6.43;1.20;;;;;;;19.57;41.95;101372.63;5031636;28;20044;-86
2022/05/25 11:22:42;;;;;;;3.10;1.00;;;;;;;19.67;43.86;101369.97;5030777;28;20541;-86
2022/05/25 11:25:24;;;;;;;4.20;1.42;;;;;;;19.90;43.53;101362.50;5032535;28;20026;-86
2022/05/25 11:28:25;;;;;;;2.22;1.00;;;;;;;19.93;43.93;101356.47;5034116;28;20045;-86
2022/05/25 11:31:13;;;;;;;2.50;1.25;;;;;;;20.06;44.45;101353.28;5033361;28;20028;-86
2022/05/25 11:34:16;;;;;;;2.70;1.10;;;;;;;20.17;44.72;101350.63;5031628;28;20028;-86
2022/05/25 11:37:03;;;;;;;2.83;1.00;;;;;;;19.95;44.32;101346.06;5012180;28;20025;-86
2022/05/25 11:39:59;;;;;;;4.60;1.33;;;;;;;20.05;44.27;101348.88;5029935;28;20449;-86
2022/05/25 11:42:45;;;;;;;4.13;1.30;;;;;;;20.20;44.64;101358.34;5028589;28;20049;-87
2022/05/25 11:45:21;;;;;;;3.50;1.30;;;;;;;20.24;43.72;101348.47;5044099;28;20028;-87
2022/05/25 11:48:31;;;;;;;5.60;1.15;;;;;;;20.22;43.36;101358.88;5028300;28;20453;-87
2022/05/25 11:51:23;;;;;;;4.72;1.20;;;;;;;20.06;42.62;101361.53;5016374;28;20041;-86
2022/05/25 11:54:01;;;;;;;5.20;1.38;;;;;;;19.94;43.41;101347.13;5029946;28;20128;-86
2022/05/25 11:56:49;;;;;;;4.53;1.30;;;;;;;19.72;43.60;101359.03;5027269;28;20537;-86